FTTY

Details ICAO FTTY (FYT)
Name FAYA LARGEAU
Region Chad
Timezone Africa/Ndjamena (UTC+1.0)
Plans Departing 1
Arriving 1
Stats Elevation 771 ft / 235 m (AMSL)
Location 17.917053° 19.111079°
Runways 1
Magnetic Variation 2.368° E
Sunrise 2017-12-11 05:05:58 UTC / 2017-12-11 06:05:58 Local
Sunset 2017-12-11 16:10:31 UTC / 2017-12-11 17:10:31 Local
Advertisement - Login to hide

Runways

ID Width Length Bearing (true) Bearing (mag) Surface Threshold Offset Overrun Length
06 148 ft / 45 m 9,195 ft / 2,803 m 58.25° 55.88° Asphalt 0 ft / 0 m 0 ft / 0 m
24 148 ft / 45 m 9,195 ft / 2,803 m 238.26° 235.89° Asphalt 0 ft / 0 m 0 ft / 0 m

Map

Weather


0- 5 10 15 20 25 30 35+ Temperature / ° C

Clouds and Precipitation
Forecast for 2017-12-11 18:00 UTC. Updated 19 minutes ago

Ground ~20,000 ft ~40,000 ft Winds

METAR

FTTY 111200Z 04008KT CAVOK 28/04 Q1014

TAF

Not found

Frequencies

Tower 118.10 MHz AFIS
Tower 119.70 MHz AFIS
Warning: Do not use this data for real-world aviation or navigation. No guarantee of current accuracy is given.